aviador You're here:

KFLL Decoded Metar

FORT LAUDERDALE in FL, USA
Report Time2018-07-23 14:53:00
UTC Time2018-07-23 15:53:01
Flight Rules vfr VFR
Wind200° at 10 kt
W.Decomp.*RWY 28: 2.8 kt HW 9.6 kt LCW
W.Rank200° ranks 30
Current wind is above 200° avg. (6.2)
Visibility9999 m
Phenomena:N/A
Clouds:Few 025 Hf
Few 150 Hf
Broken 250 Hf
Expected CloudBase > 2,000 ft AGL from Temp-Dew spread
Ceiling25,000 ft
Temp31°C (ISA +16)
Dew Point26°C (75% RH)
Heat Index39.2°C
QNH1011 hPa
Density Alt2,349 ft
Elevation10 ft
Report Wrong Elevation
Raw Report
KFLL 231453Z 20010KT 10SM FEW025 FEW150 BKN250 31/26 A2986 RMK AO2
SLP112 T03060261 58017=

Extra information for KFLL:More info

Metar Taf Metar & Taf Last 4 Metars F.Rules Stats Wind Profile Meteogram Temp Stats Airport Information Weather charts Add Link Nearby VenuesMetar ALERT Operation Metar Decoded Social comments

AIRNAV info for KFLL